sensor_id;sensor_type;location;lat;lon;timestamp;temperature;humidity
8557;DHT22;4316;53.840;10.762;2023-04-25T00:01:04;9.00;99.90
8557;DHT22;4316;53.840;10.762;2023-04-25T00:03:31;9.10;99.90
8557;DHT22;4316;53.840;10.762;2023-04-25T00:05:58;9.00;99.90
8557;DHT22;4316;53.840;10.762;2023-04-25T00:08:27;9.10;99.90
8557;DHT22;4316;53.840;10.762;2023-04-25T00:10:53;9.00;99.90
8557;DHT22;4316;53.840;10.762;2023-04-25T00:13:19;9.00;99.90
8557;DHT22;4316;53.840;10.762;2023-04-25T00:15:45;9.00;99.90
8557;DHT22;4316;53.840;10.762;2023-04-25T00:18:11;9.00;99.90
8557;DHT22;4316;53.840;10.762;2023-04-25T00:20:37;8.90;99.90
8557;DHT22;4316;53.840;10.762;2023-04-25T00:23:02;9.00;99.90
8557;DHT22;4316;53.840;10.762;2023-04-25T00:25:28;8.90;99.90
8557;DHT22;4316;53.840;10.762;2023-04-25T00:27:55;9.00;99.90
8557;DHT22;4316;53.840;10.762;2023-04-25T00:30:20;9.00;99.90
8557;DHT22;4316;53.840;10.762;2023-04-25T00:32:46;9.00;99.90
8557;DHT22;4316;53.840;10.762;2023-04-25T00:35:13;9.00;99.90
8557;DHT22;4316;53.840;10.762;2023-04-25T00:37:38;9.00;99.90
8557;DHT22;4316;53.840;10.762;2023-04-25T00:40:07;9.00;99.90
8557;DHT22;4316;53.840;10.762;2023-04-25T00:42:35;8.90;99.90
8557;DHT22;4316;53.840;10.762;2023-04-25T00:45:01;9.00;99.90
8557;DHT22;4316;53.840;10.762;2023-04-25T00:47:28;8.90;99.90
8557;DHT22;4316;53.840;10.762;2023-04-25T00:49:54;8.90;99.90
8557;DHT22;4316;53.840;10.762;2023-04-25T00:52:20;8.90;99.90
8557;DHT22;4316;53.840;10.762;2023-04-25T00:54:45;8.90;99.90
8557;DHT22;4316;53.840;10.762;2023-04-25T00:57:11;8.90;99.90
8557;DHT22;4316;53.840;10.762;2023-04-25T00:59:38;8.90;99.90
8557;DHT22;4316;53.840;10.762;2023-04-25T01:02:04;8.90;99.90
8557;DHT22;4316;53.840;10.762;2023-04-25T01:04:30;8.90;99.90
8557;DHT22;4316;53.840;10.762;2023-04-25T01:06:56;8.80;99.90
8557;DHT22;4316;53.840;10.762;2023-04-25T01:09:22;8.80;99.90
8557;DHT22;4316;53.840;10.762;2023-04-25T01:11:48;8.70;99.90
8557;DHT22;4316;53.840;10.762;2023-04-25T01:14:14;8.60;99.90
8557;DHT22;4316;53.840;10.762;2023-04-25T01:16:40;8.50;99.90
8557;DHT22;4316;53.840;10.762;2023-04-25T01:19:09;8.50;99.90
8557;DHT22;4316;53.840;10.762;2023-04-25T01:21:38;8.50;99.90
8557;DHT22;4316;53.840;10.762;2023-04-25T01:24:04;8.50;99.90
8557;DHT22;4316;53.840;10.762;2023-04-25T01:26:30;8.50;99.90
8557;DHT22;4316;53.840;10.762;2023-04-25T01:28:57;8.50;99.90
8557;DHT22;4316;53.840;10.762;2023-04-25T01:31:23;8.50;99.90
8557;DHT22;4316;53.840;10.762;2023-04-25T01:33:49;8.40;99.90
8557;DHT22;4316;53.840;10.762;2023-04-25T01:36:15;8.50;99.90
8557;DHT22;4316;53.840;10.762;2023-04-25T01:38:41;8.50;99.90
8557;DHT22;4316;53.840;10.762;2023-04-25T01:41:07;8.50;99.90
8557;DHT22;4316;53.840;10.762;2023-04-25T01:43:33;8.40;99.90
8557;DHT22;4316;53.840;10.762;2023-04-25T01:45:59;8.40;99.90
8557;DHT22;4316;53.840;10.762;2023-04-25T01:48:25;8.40;99.90
8557;DHT22;4316;53.840;10.762;2023-04-25T01:50:50;8.40;99.90
8557;DHT22;4316;53.840;10.762;2023-04-25T01:53:17;8.40;99.90
8557;DHT22;4316;53.840;10.762;2023-04-25T01:55:44;8.30;99.90
8557;DHT22;4316;53.840;10.762;2023-04-25T01:58:13;8.30;99.90
8557;DHT22;4316;53.840;10.762;2023-04-25T02:00:57;8.20;99.90
8557;DHT22;4316;53.840;10.762;2023-04-25T02:03:27;8.20;99.90
8557;DHT22;4316;53.840;10.762;2023-04-25T02:05:53;8.20;99.90
8557;DHT22;4316;53.840;10.762;2023-04-25T02:08:20;8.30;99.90
8557;DHT22;4316;53.840;10.762;2023-04-25T02:10:45;8.20;99.90
8557;DHT22;4316;53.840;10.762;2023-04-25T02:13:17;8.20;99.90
8557;DHT22;4316;53.840;10.762;2023-04-25T02:15:57;8.10;99.90
8557;DHT22;4316;53.840;10.762;2023-04-25T02:18:23;8.10;99.90
8557;DHT22;4316;53.840;10.762;2023-04-25T02:20:48;8.10;99.90
8557;DHT22;4316;53.840;10.762;2023-04-25T02:23:14;8.10;99.90
8557;DHT22;4316;53.840;10.762;2023-04-25T02:25:41;8.00;99.90
8557;DHT22;4316;53.840;10.762;2023-04-25T02:28:07;8.10;99.90
8557;DHT22;4316;53.840;10.762;2023-04-25T02:30:32;8.00;99.90
8557;DHT22;4316;53.840;10.762;2023-04-25T02:32:58;8.00;99.90
8557;DHT22;4316;53.840;10.762;2023-04-25T02:35:24;8.00;99.90
8557;DHT22;4316;53.840;10.762;2023-04-25T02:37:52;8.00;99.90
8557;DHT22;4316;53.840;10.762;2023-04-25T02:40:17;7.90;99.90
8557;DHT22;4316;53.840;10.762;2023-04-25T02:42:43;8.00;99.90
8557;DHT22;4316;53.840;10.762;2023-04-25T02:45:11;8.00;99.90
8557;DHT22;4316;53.840;10.762;2023-04-25T02:47:36;7.90;99.90
8557;DHT22;4316;53.840;10.762;2023-04-25T02:50:03;7.90;99.90
8557;DHT22;4316;53.840;10.762;2023-04-25T02:52:29;7.80;99.90
8557;DHT22;4316;53.840;10.762;2023-04-25T02:55:02;7.80;99.90
8557;DHT22;4316;53.840;10.762;2023-04-25T02:57:29;7.90;99.90
8557;DHT22;4316;53.840;10.762;2023-04-25T02:59:55;7.90;99.90
8557;DHT22;4316;53.840;10.762;2023-04-25T03:02:21;7.80;99.90
8557;DHT22;4316;53.840;10.762;2023-04-25T03:04:46;7.90;99.90
8557;DHT22;4316;53.840;10.762;2023-04-25T03:07:13;7.90;99.90
8557;DHT22;4316;53.840;10.762;2023-04-25T03:09:39;7.80;99.90
8557;DHT22;4316;53.840;10.762;2023-04-25T03:12:04;7.80;99.90
8557;DHT22;4316;53.840;10.762;2023-04-25T03:14:32;7.70;99.90
8557;DHT22;4316;53.840;10.762;2023-04-25T03:16:58;7.70;99.90
8557;DHT22;4316;53.840;10.762;2023-04-25T03:19:23;7.60;99.90
8557;DHT22;4316;53.840;10.762;2023-04-25T03:21:49;7.50;99.90
8557;DHT22;4316;53.840;10.762;2023-04-25T03:24:15;7.40;99.90
8557;DHT22;4316;53.840;10.762;2023-04-25T03:26:40;7.30;99.90
8557;DHT22;4316;53.840;10.762;2023-04-25T03:29:08;7.20;99.90
8557;DHT22;4316;53.840;10.762;2023-04-25T03:31:35;7.20;99.90
8557;DHT22;4316;53.840;10.762;2023-04-25T03:34:00;7.20;99.90
8557;DHT22;4316;53.840;10.762;2023-04-25T03:36:26;7.10;99.90
8557;DHT22;4316;53.840;10.762;2023-04-25T03:38:51;7.20;99.90
8557;DHT22;4316;53.840;10.762;2023-04-25T03:41:19;7.30;99.90
8557;DHT22;4316;53.840;10.762;2023-04-25T03:43:50;7.10;99.90
8557;DHT22;4316;53.840;10.762;2023-04-25T03:46:16;7.00;99.90
8557;DHT22;4316;53.840;10.762;2023-04-25T03:48:42;6.90;99.90
8557;DHT22;4316;53.840;10.762;2023-04-25T03:51:10;6.90;99.90
8557;DHT22;4316;53.840;10.762;2023-04-25T03:53:40;7.00;99.90
8557;DHT22;4316;53.840;10.762;2023-04-25T03:56:14;6.90;99.90
8557;DHT22;4316;53.840;10.762;2023-04-25T03:58:41;6.90;99.90
8557;DHT22;4316;53.840;10.762;2023-04-25T04:01:07;6.90;99.90
8557;DHT22;4316;53.840;10.762;2023-04-25T04:03:35;6.90;99.90
8557;DHT22;4316;53.840;10.762;2023-04-25T04:06:03;6.90;99.90
8557;DHT22;4316;53.840;10.762;2023-04-25T04:08:29;6.80;99.90
8557;DHT22;4316;53.840;10.762;2023-04-25T04:10:56;6.90;99.90
8557;DHT22;4316;53.840;10.762;2023-04-25T04:13:22;6.80;99.90
8557;DHT22;4316;53.840;10.762;2023-04-25T04:15:47;6.80;99.90
8557;DHT22;4316;53.840;10.762;2023-04-25T04:18:13;6.90;99.90
8557;DHT22;4316;53.840;10.762;2023-04-25T04:20:39;6.90;99.90
8557;DHT22;4316;53.840;10.762;2023-04-25T04:23:06;6.90;99.90
8557;DHT22;4316;53.840;10.762;2023-04-25T04:25:31;6.80;99.90
8557;DHT22;4316;53.840;10.762;2023-04-25T04:28:07;6.80;99.90
8557;DHT22;4316;53.840;10.762;2023-04-25T04:30:39;6.90;99.90
8557;DHT22;4316;53.840;10.762;2023-04-25T04:33:07;6.80;99.90
8557;DHT22;4316;53.840;10.762;2023-04-25T04:35:33;6.80;99.90
8557;DHT22;4316;53.840;10.762;2023-04-25T04:37:59;6.80;99.90
8557;DHT22;4316;53.840;10.762;2023-04-25T04:40:29;6.70;99.90
8557;DHT22;4316;53.840;10.762;2023-04-25T04:43:22;6.70;99.90
8557;DHT22;4316;53.840;10.762;2023-04-25T04:46:06;6.80;99.90
8557;DHT22;4316;53.840;10.762;2023-04-25T04:48:41;6.90;99.90
8557;DHT22;4316;53.840;10.762;2023-04-25T04:51:32;6.90;99.90
8557;DHT22;4316;53.840;10.762;2023-04-25T04:54:21;6.90;99.90
8557;DHT22;4316;53.840;10.762;2023-04-25T04:57:03;7.00;99.90
8557;DHT22;4316;53.840;10.762;2023-04-25T04:59:42;7.00;99.90
8557;DHT22;4316;53.840;10.762;2023-04-25T05:02:26;7.00;99.90
8557;DHT22;4316;53.840;10.762;2023-04-25T05:05:12;7.00;99.90
8557;DHT22;4316;53.840;10.762;2023-04-25T05:07:56;7.10;99.90
8557;DHT22;4316;53.840;10.762;2023-04-25T05:10:40;7.10;99.90
8557;DHT22;4316;53.840;10.762;2023-04-25T05:13:18;7.10;99.90
8557;DHT22;4316;53.840;10.762;2023-04-25T05:16:07;7.20;99.90
8557;DHT22;4316;53.840;10.762;2023-04-25T05:18:57;7.20;99.90
8557;DHT22;4316;53.840;10.762;2023-04-25T05:21:51;7.10;99.90
8557;DHT22;4316;53.840;10.762;2023-04-25T05:24:30;7.20;99.90
8557;DHT22;4316;53.840;10.762;2023-04-25T05:27:22;7.40;99.90
8557;DHT22;4316;53.840;10.762;2023-04-25T05:30:06;7.30;99.90
8557;DHT22;4316;53.840;10.762;2023-04-25T05:32:40;7.20;99.90
8557;DHT22;4316;53.840;10.762;2023-04-25T05:35:06;7.30;99.90
8557;DHT22;4316;53.840;10.762;2023-04-25T05:37:39;7.30;99.90
8557;DHT22;4316;53.840;10.762;2023-04-25T05:40:10;7.30;99.90
8557;DHT22;4316;53.840;10.762;2023-04-25T05:42:52;7.40;99.90
8557;DHT22;4316;53.840;10.762;2023-04-25T05:45:36;7.40;99.90
8557;DHT22;4316;53.840;10.762;2023-04-25T05:48:08;7.40;99.90
8557;DHT22;4316;53.840;10.762;2023-04-25T05:51:02;7.50;99.90
8557;DHT22;4316;53.840;10.762;2023-04-25T05:53:54;7.40;99.90
8557;DHT22;4316;53.840;10.762;2023-04-25T05:56:20;7.40;99.90
8557;DHT22;4316;53.840;10.762;2023-04-25T05:58:48;7.40;99.90
8557;DHT22;4316;53.840;10.762;2023-04-25T06:01:15;7.50;99.90
8557;DHT22;4316;53.840;10.762;2023-04-25T06:03:42;7.40;99.90
8557;DHT22;4316;53.840;10.762;2023-04-25T06:06:11;7.50;99.90
8557;DHT22;4316;53.840;10.762;2023-04-25T06:08:37;7.40;99.90
8557;DHT22;4316;53.840;10.762;2023-04-25T06:11:04;7.40;99.90
8557;DHT22;4316;53.840;10.762;2023-04-25T06:13:30;7.30;99.90
8557;DHT22;4316;53.840;10.762;2023-04-25T06:15:55;7.40;99.90
8557;DHT22;4316;53.840;10.762;2023-04-25T06:18:21;7.40;99.90
8557;DHT22;4316;53.840;10.762;2023-04-25T06:20:47;7.50;99.90
8557;DHT22;4316;53.840;10.762;2023-04-25T06:23:12;7.50;99.90
8557;DHT22;4316;53.840;10.762;2023-04-25T06:25:49;7.50;99.90
8557;DHT22;4316;53.840;10.762;2023-04-25T06:28:15;7.50;99.90
8557;DHT22;4316;53.840;10.762;2023-04-25T06:30:42;7.60;99.90
8557;DHT22;4316;53.840;10.762;2023-04-25T06:33:11;7.60;99.90
8557;DHT22;4316;53.840;10.762;2023-04-25T06:35:38;7.70;99.90
8557;DHT22;4316;53.840;10.762;2023-04-25T06:38:06;7.70;99.90
8557;DHT22;4316;53.840;10.762;2023-04-25T06:40:31;7.80;99.90
8557;DHT22;4316;53.840;10.762;2023-04-25T06:42:57;7.80;99.90
8557;DHT22;4316;53.840;10.762;2023-04-25T06:45:43;7.90;99.90
8557;DHT22;4316;53.840;10.762;2023-04-25T06:48:09;8.00;99.90
8557;DHT22;4316;53.840;10.762;2023-04-25T06:50:35;7.90;99.90
8557;DHT22;4316;53.840;10.762;2023-04-25T06:53:01;8.00;99.90
8557;DHT22;4316;53.840;10.762;2023-04-25T06:55:28;8.00;99.90
8557;DHT22;4316;53.840;10.762;2023-04-25T06:58:12;8.00;99.90
8557;DHT22;4316;53.840;10.762;2023-04-25T07:00:56;8.10;99.90
8557;DHT22;4316;53.840;10.762;2023-04-25T07:03:23;8.10;99.90
8557;DHT22;4316;53.840;10.762;2023-04-25T07:05:52;8.10;99.90
8557;DHT22;4316;53.840;10.762;2023-04-25T07:08:17;8.10;99.90
8557;DHT22;4316;53.840;10.762;2023-04-25T07:10:43;8.20;99.90
8557;DHT22;4316;53.840;10.762;2023-04-25T07:13:08;8.30;99.90
8557;DHT22;4316;53.840;10.762;2023-04-25T07:15:34;8.20;99.90
8557;DHT22;4316;53.840;10.762;2023-04-25T07:18:01;8.20;99.90
8557;DHT22;4316;53.840;10.762;2023-04-25T07:20:26;8.30;99.90
8557;DHT22;4316;53.840;10.762;2023-04-25T07:22:53;8.30;99.90
8557;DHT22;4316;53.840;10.762;2023-04-25T07:25:19;8.30;99.90
8557;DHT22;4316;53.840;10.762;2023-04-25T07:27:45;8.20;99.90
8557;DHT22;4316;53.840;10.762;2023-04-25T07:30:16;8.30;99.90
8557;DHT22;4316;53.840;10.762;2023-04-25T07:32:42;8.30;99.90
8557;DHT22;4316;53.840;10.762;2023-04-25T07:35:08;8.40;99.90
8557;DHT22;4316;53.840;10.762;2023-04-25T07:37:35;8.30;99.90
8557;DHT22;4316;53.840;10.762;2023-04-25T07:40:10;8.30;99.90
8557;DHT22;4316;53.840;10.762;2023-04-25T07:42:39;8.40;99.90
8557;DHT22;4316;53.840;10.762;2023-04-25T07:45:06;8.60;99.90
8557;DHT22;4316;53.840;10.762;2023-04-25T07:47:32;8.70;99.90
8557;DHT22;4316;53.840;10.762;2023-04-25T07:49:57;8.80;99.90
8557;DHT22;4316;53.840;10.762;2023-04-25T07:52:23;8.80;99.90
8557;DHT22;4316;53.840;10.762;2023-04-25T07:54:55;8.80;99.90
8557;DHT22;4316;53.840;10.762;2023-04-25T07:57:28;9.00;99.90
8557;DHT22;4316;53.840;10.762;2023-04-25T07:59:56;9.00;99.90
8557;DHT22;4316;53.840;10.762;2023-04-25T08:02:21;9.20;99.90
8557;DHT22;4316;53.840;10.762;2023-04-25T08:04:47;9.20;99.90
8557;DHT22;4316;53.840;10.762;2023-04-25T08:07:16;9.20;99.90
8557;DHT22;4316;53.840;10.762;2023-04-25T08:09:49;9.00;99.90
8557;DHT22;4316;53.840;10.762;2023-04-25T08:12:33;8.80;99.90
8557;DHT22;4316;53.840;10.762;2023-04-25T08:14:59;8.60;99.90
8557;DHT22;4316;53.840;10.762;2023-04-25T08:17:30;8.60;99.90
8557;DHT22;4316;53.840;10.762;2023-04-25T08:19:56;8.60;99.90
8557;DHT22;4316;53.840;10.762;2023-04-25T08:22:26;8.60;99.90
8557;DHT22;4316;53.840;10.762;2023-04-25T08:25:02;8.60;99.90
8557;DHT22;4316;53.840;10.762;2023-04-25T08:27:28;8.70;99.90
8557;DHT22;4316;53.840;10.762;2023-04-25T08:29:53;8.80;99.90
8557;DHT22;4316;53.840;10.762;2023-04-25T08:32:19;9.00;99.90
8557;DHT22;4316;53.840;10.762;2023-04-25T08:35:01;9.10;99.90
8557;DHT22;4316;53.840;10.762;2023-04-25T08:37:27;9.40;99.90
8557;DHT22;4316;53.840;10.762;2023-04-25T08:39:56;9.90;99.90
8557;DHT22;4316;53.840;10.762;2023-04-25T08:42:33;10.40;99.90
8557;DHT22;4316;53.840;10.762;2023-04-25T08:45:02;10.50;99.90
8557;DHT22;4316;53.840;10.762;2023-04-25T08:47:33;10.30;99.90
8557;DHT22;4316;53.840;10.762;2023-04-25T08:50:01;10.10;99.90
8557;DHT22;4316;53.840;10.762;2023-04-25T08:52:30;10.40;99.90
8557;DHT22;4316;53.840;10.762;2023-04-25T08:54:58;10.40;99.90
8557;DHT22;4316;53.840;10.762;2023-04-25T08:57:27;10.40;99.90
8557;DHT22;4316;53.840;10.762;2023-04-25T08:59:56;10.30;99.90
8557;DHT22;4316;53.840;10.762;2023-04-25T09:02:24;10.10;99.90
8557;DHT22;4316;53.840;10.762;2023-04-25T09:04:51;9.90;99.90
8557;DHT22;4316;53.840;10.762;2023-04-25T09:07:16;9.60;99.90
8557;DHT22;4316;53.840;10.762;2023-04-25T09:09:46;9.50;99.90
8557;DHT22;4316;53.840;10.762;2023-04-25T09:12:17;9.40;99.90
8557;DHT22;4316;53.840;10.762;2023-04-25T09:15:01;9.40;99.90
8557;DHT22;4316;53.840;10.762;2023-04-25T09:17:41;9.80;99.90
8557;DHT22;4316;53.840;10.762;2023-04-25T09:20:14;10.20;99.90
8557;DHT22;4316;53.840;10.762;2023-04-25T09:22:40;10.50;99.90
8557;DHT22;4316;53.840;10.762;2023-04-25T09:25:12;10.30;99.90
8557;DHT22;4316;53.840;10.762;2023-04-25T09:27:53;10.40;99.90
8557;DHT22;4316;53.840;10.762;2023-04-25T09:30:31;10.10;99.90
8557;DHT22;4316;53.840;10.762;2023-04-25T09:33:05;9.90;99.90
8557;DHT22;4316;53.840;10.762;2023-04-25T09:35:53;9.90;99.90
8557;DHT22;4316;53.840;10.762;2023-04-25T09:38:44;9.60;99.90
8557;DHT22;4316;53.840;10.762;2023-04-25T09:41:22;9.50;99.90
8557;DHT22;4316;53.840;10.762;2023-04-25T09:43:49;9.50;99.90
8557;DHT22;4316;53.840;10.762;2023-04-25T09:46:15;9.60;99.90
8557;DHT22;4316;53.840;10.762;2023-04-25T09:48:51;9.60;99.90
8557;DHT22;4316;53.840;10.762;2023-04-25T09:51:26;9.70;99.90
8557;DHT22;4316;53.840;10.762;2023-04-25T09:53:52;9.90;99.90
8557;DHT22;4316;53.840;10.762;2023-04-25T09:56:40;10.00;99.90
8557;DHT22;4316;53.840;10.762;2023-04-25T09:59:07;9.90;99.90
8557;DHT22;4316;53.840;10.762;2023-04-25T10:01:36;10.10;99.90
8557;DHT22;4316;53.840;10.762;2023-04-25T10:04:11;10.40;99.90
8557;DHT22;4316;53.840;10.762;2023-04-25T10:07:07;10.40;99.90
8557;DHT22;4316;53.840;10.762;2023-04-25T10:09:37;10.50;99.90
8557;DHT22;4316;53.840;10.762;2023-04-25T10:12:03;10.30;99.90
8557;DHT22;4316;53.840;10.762;2023-04-25T10:14:32;10.10;99.90
8557;DHT22;4316;53.840;10.762;2023-04-25T10:16:59;9.90;99.90
8557;DHT22;4316;53.840;10.762;2023-04-25T10:19:26;9.90;99.90
8557;DHT22;4316;53.840;10.762;2023-04-25T10:22:35;10.10;99.90
8557;DHT22;4316;53.840;10.762;2023-04-25T10:24:59;10.40;99.90
8557;DHT22;4316;53.840;10.762;2023-04-25T10:27:27;10.70;99.90
8557;DHT22;4316;53.840;10.762;2023-04-25T10:30:09;10.60;99.90
8557;DHT22;4316;53.840;10.762;2023-04-25T10:32:39;10.30;99.90
8557;DHT22;4316;53.840;10.762;2023-04-25T10:35:11;9.90;99.90
8557;DHT22;4316;53.840;10.762;2023-04-25T10:37:37;9.50;99.90
8557;DHT22;4316;53.840;10.762;2023-04-25T10:40:10;9.30;99.90
8557;DHT22;4316;53.840;10.762;2023-04-25T10:42:35;9.10;99.90
8557;DHT22;4316;53.840;10.762;2023-04-25T10:45:04;9.10;99.90
8557;DHT22;4316;53.840;10.762;2023-04-25T10:47:43;9.00;99.90
8557;DHT22;4316;53.840;10.762;2023-04-25T10:50:10;9.10;99.90
8557;DHT22;4316;53.840;10.762;2023-04-25T10:52:38;9.30;99.90
8557;DHT22;4316;53.840;10.762;2023-04-25T10:55:04;9.40;99.90
8557;DHT22;4316;53.840;10.762;2023-04-25T10:57:44;9.50;99.90
8557;DHT22;4316;53.840;10.762;2023-04-25T11:00:19;9.50;99.90
8557;DHT22;4316;53.840;10.762;2023-04-25T11:02:52;9.50;99.90
8557;DHT22;4316;53.840;10.762;2023-04-25T11:05:29;9.10;99.90
8557;DHT22;4316;53.840;10.762;2023-04-25T11:07:55;9.20;99.90
8557;DHT22;4316;53.840;10.762;2023-04-25T11:10:29;9.30;99.90
8557;DHT22;4316;53.840;10.762;2023-04-25T11:12:56;9.40;99.90
8557;DHT22;4316;53.840;10.762;2023-04-25T11:15:21;9.50;99.90
8557;DHT22;4316;53.840;10.762;2023-04-25T11:17:47;9.50;99.90
8557;DHT22;4316;53.840;10.762;2023-04-25T11:20:13;9.50;99.90
8557;DHT22;4316;53.840;10.762;2023-04-25T11:22:39;9.50;99.90
8557;DHT22;4316;53.840;10.762;2023-04-25T11:25:09;9.60;99.90
8557;DHT22;4316;53.840;10.762;2023-04-25T11:27:38;9.80;99.90
8557;DHT22;4316;53.840;10.762;2023-04-25T11:30:14;10.20;99.90
8557;DHT22;4316;53.840;10.762;2023-04-25T11:32:41;10.50;99.90
8557;DHT22;4316;53.840;10.762;2023-04-25T11:35:07;10.80;99.90
8557;DHT22;4316;53.840;10.762;2023-04-25T11:37:33;11.10;99.90
8557;DHT22;4316;53.840;10.762;2023-04-25T11:40:00;11.30;99.90
8557;DHT22;4316;53.840;10.762;2023-04-25T11:42:26;11.60;99.90
8557;DHT22;4316;53.840;10.762;2023-04-25T11:44:52;11.80;99.90
8557;DHT22;4316;53.840;10.762;2023-04-25T11:47:17;12.00;99.90
8557;DHT22;4316;53.840;10.762;2023-04-25T11:49:43;11.70;99.90
8557;DHT22;4316;53.840;10.762;2023-04-25T11:52:08;11.50;99.90
8557;DHT22;4316;53.840;10.762;2023-04-25T11:54:37;11.20;99.90
8557;DHT22;4316;53.840;10.762;2023-04-25T11:57:04;10.90;99.90
8557;DHT22;4316;53.840;10.762;2023-04-25T11:59:29;10.70;99.90
8557;DHT22;4316;53.840;10.762;2023-04-25T12:01:55;10.50;99.90
8557;DHT22;4316;53.840;10.762;2023-04-25T12:04:24;10.00;99.90
8557;DHT22;4316;53.840;10.762;2023-04-25T12:06:51;9.60;99.90
8557;DHT22;4316;53.840;10.762;2023-04-25T12:09:19;9.50;99.90
8557;DHT22;4316;53.840;10.762;2023-04-25T12:11:54;9.40;99.90
8557;DHT22;4316;53.840;10.762;2023-04-25T12:14:26;9.30;99.90
8557;DHT22;4316;53.840;10.762;2023-04-25T12:16:55;9.20;99.90
8557;DHT22;4316;53.840;10.762;2023-04-25T12:19:21;9.20;99.90
8557;DHT22;4316;53.840;10.762;2023-04-25T12:21:48;9.30;99.90
8557;DHT22;4316;53.840;10.762;2023-04-25T12:24:16;9.30;99.90
8557;DHT22;4316;53.840;10.762;2023-04-25T12:29:23;9.60;99.90
8557;DHT22;4316;53.840;10.762;2023-04-25T12:31:51;9.80;99.90
8557;DHT22;4316;53.840;10.762;2023-04-25T12:34:20;10.00;99.90
8557;DHT22;4316;53.840;10.762;2023-04-25T12:36:47;10.00;99.90
8557;DHT22;4316;53.840;10.762;2023-04-25T12:41:45;10.50;99.90
8557;DHT22;4316;53.840;10.762;2023-04-25T12:44:12;10.80;99.90
8557;DHT22;4316;53.840;10.762;2023-04-25T12:46:38;11.00;99.90
8557;DHT22;4316;53.840;10.762;2023-04-25T12:49:04;11.00;99.90
8557;DHT22;4316;53.840;10.762;2023-04-25T12:51:30;11.00;99.90
8557;DHT22;4316;53.840;10.762;2023-04-25T12:53:58;10.80;99.90
8557;DHT22;4316;53.840;10.762;2023-04-25T12:56:24;10.30;99.90
8557;DHT22;4316;53.840;10.762;2023-04-25T12:58:50;9.70;99.90
8557;DHT22;4316;53.840;10.762;2023-04-25T13:01:16;9.10;99.90
8557;DHT22;4316;53.840;10.762;2023-04-25T13:03:41;8.80;99.90
8557;DHT22;4316;53.840;10.762;2023-04-25T13:06:07;8.50;99.90
8557;DHT22;4316;53.840;10.762;2023-04-25T13:08:33;8.40;99.90
8557;DHT22;4316;53.840;10.762;2023-04-25T13:11:00;8.30;99.90
8557;DHT22;4316;53.840;10.762;2023-04-25T13:13:26;8.30;99.90
8557;DHT22;4316;53.840;10.762;2023-04-25T13:15:52;8.40;99.90
8557;DHT22;4316;53.840;10.762;2023-04-25T13:18:18;8.60;99.90
8557;DHT22;4316;53.840;10.762;2023-04-25T13:20:44;8.90;99.90
8557;DHT22;4316;53.840;10.762;2023-04-25T13:23:11;9.10;99.90
8557;DHT22;4316;53.840;10.762;2023-04-25T13:25:37;9.40;99.90
8557;DHT22;4316;53.840;10.762;2023-04-25T13:28:03;9.70;99.90
8557;DHT22;4316;53.840;10.762;2023-04-25T13:30:29;10.10;99.90
8557;DHT22;4316;53.840;10.762;2023-04-25T13:32:54;10.50;99.90
8557;DHT22;4316;53.840;10.762;2023-04-25T13:35:22;10.60;99.90
8557;DHT22;4316;53.840;10.762;2023-04-25T13:37:48;10.60;99.90
8557;DHT22;4316;53.840;10.762;2023-04-25T13:40:14;10.90;99.90
8557;DHT22;4316;53.840;10.762;2023-04-25T13:42:40;11.00;99.90
8557;DHT22;4316;53.840;10.762;2023-04-25T13:45:06;11.10;99.90
8557;DHT22;4316;53.840;10.762;2023-04-25T13:47:32;11.20;99.90
8557;DHT22;4316;53.840;10.762;2023-04-25T13:49:58;11.50;99.90
8557;DHT22;4316;53.840;10.762;2023-04-25T13:52:23;11.60;99.90
8557;DHT22;4316;53.840;10.762;2023-04-25T13:54:50;11.50;99.90
8557;DHT22;4316;53.840;10.762;2023-04-25T13:57:16;11.30;99.90
8557;DHT22;4316;53.840;10.762;2023-04-25T13:59:42;11.00;99.90
8557;DHT22;4316;53.840;10.762;2023-04-25T14:02:08;10.90;99.90
8557;DHT22;4316;53.840;10.762;2023-04-25T14:04:34;10.80;99.90
8557;DHT22;4316;53.840;10.762;2023-04-25T14:07:00;10.70;99.90
8557;DHT22;4316;53.840;10.762;2023-04-25T14:09:27;10.70;99.90
8557;DHT22;4316;53.840;10.762;2023-04-25T14:11:53;10.80;99.90
8557;DHT22;4316;53.840;10.762;2023-04-25T14:14:20;11.10;99.90
8557;DHT22;4316;53.840;10.762;2023-04-25T14:16:46;11.20;99.90
8557;DHT22;4316;53.840;10.762;2023-04-25T14:19:17;11.30;99.60
8557;DHT22;4316;53.840;10.762;2023-04-25T14:21:43;11.40;99.40
8557;DHT22;4316;53.840;10.762;2023-04-25T14:24:09;11.60;99.40
8557;DHT22;4316;53.840;10.762;2023-04-25T14:26:36;11.60;99.10
8557;DHT22;4316;53.840;10.762;2023-04-25T14:29:03;11.50;99.90
8557;DHT22;4316;53.840;10.762;2023-04-25T14:31:29;11.40;99.30
8557;DHT22;4316;53.840;10.762;2023-04-25T14:33:55;11.10;99.40
8557;DHT22;4316;53.840;10.762;2023-04-25T14:36:21;11.10;99.90
8557;DHT22;4316;53.840;10.762;2023-04-25T14:38:46;11.00;99.90
8557;DHT22;4316;53.840;10.762;2023-04-25T14:41:12;10.80;99.90
8557;DHT22;4316;53.840;10.762;2023-04-25T14:43:38;10.60;99.90
8557;DHT22;4316;53.840;10.762;2023-04-25T14:46:05;10.40;99.90
8557;DHT22;4316;53.840;10.762;2023-04-25T14:48:32;10.30;99.90
8557;DHT22;4316;53.840;10.762;2023-04-25T14:50:58;10.00;99.90
8557;DHT22;4316;53.840;10.762;2023-04-25T14:53:25;9.70;99.90
8557;DHT22;4316;53.840;10.762;2023-04-25T14:55:50;9.70;99.90
8557;DHT22;4316;53.840;10.762;2023-04-25T14:58:16;9.70;99.90
8557;DHT22;4316;53.840;10.762;2023-04-25T15:00:42;9.80;99.90
8557;DHT22;4316;53.840;10.762;2023-04-25T15:03:09;9.70;99.90
8557;DHT22;4316;53.840;10.762;2023-04-25T15:05:37;9.80;99.90
8557;DHT22;4316;53.840;10.762;2023-04-25T15:08:03;9.80;99.90
8557;DHT22;4316;53.840;10.762;2023-04-25T15:10:28;9.80;99.90
8557;DHT22;4316;53.840;10.762;2023-04-25T15:12:54;10.10;99.90
8557;DHT22;4316;53.840;10.762;2023-04-25T15:15:20;10.30;99.90
8557;DHT22;4316;53.840;10.762;2023-04-25T15:17:46;10.40;99.90
8557;DHT22;4316;53.840;10.762;2023-04-25T15:20:13;10.40;99.90
8557;DHT22;4316;53.840;10.762;2023-04-25T15:22:40;10.10;99.90
8557;DHT22;4316;53.840;10.762;2023-04-25T15:25:07;10.00;99.90
8557;DHT22;4316;53.840;10.762;2023-04-25T15:27:34;10.00;99.90
8557;DHT22;4316;53.840;10.762;2023-04-25T15:30:05;10.00;99.90
8557;DHT22;4316;53.840;10.762;2023-04-25T15:32:31;9.80;99.90
8557;DHT22;4316;53.840;10.762;2023-04-25T15:34:56;9.60;99.90
8557;DHT22;4316;53.840;10.762;2023-04-25T15:37:22;9.40;99.90
8557;DHT22;4316;53.840;10.762;2023-04-25T15:39:47;9.40;99.90
8557;DHT22;4316;53.840;10.762;2023-04-25T15:42:13;9.40;99.90
8557;DHT22;4316;53.840;10.762;2023-04-25T15:44:39;9.30;99.90
8557;DHT22;4316;53.840;10.762;2023-04-25T15:47:04;9.40;99.90
8557;DHT22;4316;53.840;10.762;2023-04-25T15:49:30;9.40;99.90
8557;DHT22;4316;53.840;10.762;2023-04-25T15:51:55;9.60;99.90
8557;DHT22;4316;53.840;10.762;2023-04-25T15:54:21;9.70;99.90
8557;DHT22;4316;53.840;10.762;2023-04-25T15:56:47;10.00;99.90
8557;DHT22;4316;53.840;10.762;2023-04-25T15:59:13;10.00;99.90
8557;DHT22;4316;53.840;10.762;2023-04-25T16:01:38;10.00;99.90
8557;DHT22;4316;53.840;10.762;2023-04-25T16:04:05;10.00;99.90
8557;DHT22;4316;53.840;10.762;2023-04-25T16:06:30;9.90;99.90
8557;DHT22;4316;53.840;10.762;2023-04-25T16:08:56;9.90;99.90
8557;DHT22;4316;53.840;10.762;2023-04-25T16:11:22;9.70;99.90
8557;DHT22;4316;53.840;10.762;2023-04-25T16:13:48;9.60;99.90